Socorro, New Mexico
Current Conditions -  °F | °C
As of 2:55 AM on Thursday 23 Oct 2014 (Local Time) from KONM Reporting Station
Clear Clear  
Wind Chill: 53°   Ceiling: Unl
Heat Index: 53°   Visibility: 10mi
Dew Point: 46°   Wind: 5mph
Humidity: 79%   Direction: 320°NW
Pressure: 30.19"   Gusts: NA
Location:  34.06°N, 106.89°W
Report Text: KONM 230855Z AUTO 32004KT 10SM CLR 12/08 A3019 RMK AO2 T01160080
Loading
Personal Weather Stations






























Interactive Weather Map New forecast layout! Learn more

10-Day Weather Forecast

Advertisements
Track Severe Weather on mobile